sensor_id;sensor_type;location;lat;lon;timestamp;P1;durP1;ratioP1;P2;durP2;ratioP2
5630;SDS011;2837;50.990;7.124;2023-04-25T05:01:17;154.87;;;6.90;;
5630;SDS011;2837;50.990;7.124;2023-04-25T05:03:43;156.00;;;7.80;;
5630;SDS011;2837;50.990;7.124;2023-04-25T05:06:09;156.40;;;8.00;;
5630;SDS011;2837;50.990;7.124;2023-04-25T05:08:35;159.97;;;8.80;;
5630;SDS011;2837;50.990;7.124;2023-04-25T05:11:02;156.57;;;8.30;;
5630;SDS011;2837;50.990;7.124;2023-04-25T05:13:28;158.00;;;7.90;;
5630;SDS011;2837;50.990;7.124;2023-04-25T05:15:53;156.37;;;8.17;;
5630;SDS011;2837;50.990;7.124;2023-04-25T05:18:19;155.90;;;8.00;;
5630;SDS011;2837;50.990;7.124;2023-04-25T05:20:45;160.40;;;8.67;;
5630;SDS011;2837;50.990;7.124;2023-04-25T05:23:11;158.20;;;8.00;;
5630;SDS011;2837;50.990;7.124;2023-04-25T05:25:36;155.63;;;7.67;;
5630;SDS011;2837;50.990;7.124;2023-04-25T05:28:02;155.27;;;7.80;;
5630;SDS011;2837;50.990;7.124;2023-04-25T05:30:27;156.87;;;7.70;;
5630;SDS011;2837;50.990;7.124;2023-04-25T05:32:53;157.30;;;8.10;;
5630;SDS011;2837;50.990;7.124;2023-04-25T05:35:18;155.80;;;7.70;;
5630;SDS011;2837;50.990;7.124;2023-04-25T05:37:44;156.10;;;8.97;;
5630;SDS011;2837;50.990;7.124;2023-04-25T05:40:10;158.90;;;8.60;;
5630;SDS011;2837;50.990;7.124;2023-04-25T05:42:36;157.50;;;8.07;;
5630;SDS011;2837;50.990;7.124;2023-04-25T05:45:01;155.73;;;7.70;;
5630;SDS011;2837;50.990;7.124;2023-04-25T05:47:27;160.17;;;8.70;;
5630;SDS011;2837;50.990;7.124;2023-04-25T05:49:53;162.90;;;7.90;;
5630;SDS011;2837;50.990;7.124;2023-04-25T05:52:18;163.60;;;8.90;;
5630;SDS011;2837;50.990;7.124;2023-04-25T05:54:44;156.40;;;7.60;;
5630;SDS011;2837;50.990;7.124;2023-04-25T05:57:17;160.10;;;8.60;;
5630;SDS011;2837;50.990;7.124;2023-04-25T05:59:50;156.37;;;8.17;;
5630;SDS011;2837;50.990;7.124;2023-04-25T06:02:16;162.20;;;8.40;;
5630;SDS011;2837;50.990;7.124;2023-04-25T06:04:42;156.80;;;8.07;;
5630;SDS011;2837;50.990;7.124;2023-04-25T06:07:08;156.97;;;8.20;;
5630;SDS011;2837;50.990;7.124;2023-04-25T06:09:34;157.43;;;8.17;;
5630;SDS011;2837;50.990;7.124;2023-04-25T06:11:59;160.57;;;8.37;;
5630;SDS011;2837;50.990;7.124;2023-04-25T06:14:25;158.40;;;8.03;;
5630;SDS011;2837;50.990;7.124;2023-04-25T06:16:51;161.07;;;7.87;;
5630;SDS011;2837;50.990;7.124;2023-04-25T06:19:17;156.97;;;7.70;;
5630;SDS011;2837;50.990;7.124;2023-04-25T06:21:43;155.67;;;7.90;;
5630;SDS011;2837;50.990;7.124;2023-04-25T06:24:09;159.47;;;8.10;;
5630;SDS011;2837;50.990;7.124;2023-04-25T06:26:35;157.67;;;7.97;;
5630;SDS011;2837;50.990;7.124;2023-04-25T06:29:01;155.73;;;8.00;;
5630;SDS011;2837;50.990;7.124;2023-04-25T06:31:26;158.17;;;7.80;;
5630;SDS011;2837;50.990;7.124;2023-04-25T06:33:53;159.00;;;8.27;;
5630;SDS011;2837;50.990;7.124;2023-04-25T06:36:20;155.27;;;7.77;;
5630;SDS011;2837;50.990;7.124;2023-04-25T06:38:50;158.40;;;7.67;;
5630;SDS011;2837;50.990;7.124;2023-04-25T06:41:16;157.20;;;8.33;;
5630;SDS011;2837;50.990;7.124;2023-04-25T06:43:42;157.80;;;8.10;;
5630;SDS011;2837;50.990;7.124;2023-04-25T06:46:07;159.37;;;8.50;;
5630;SDS011;2837;50.990;7.124;2023-04-25T06:48:33;157.33;;;7.80;;
5630;SDS011;2837;50.990;7.124;2023-04-25T06:50:58;155.77;;;8.30;;
5630;SDS011;2837;50.990;7.124;2023-04-25T06:53:24;158.30;;;8.60;;
5630;SDS011;2837;50.990;7.124;2023-04-25T06:55:49;154.17;;;7.53;;
5630;SDS011;2837;50.990;7.124;2023-04-25T06:58:15;157.20;;;7.47;;
5630;SDS011;2837;50.990;7.124;2023-04-25T07:00:41;158.07;;;8.20;;
5630;SDS011;2837;50.990;7.124;2023-04-25T07:03:07;157.47;;;7.60;;
5630;SDS011;2837;50.990;7.124;2023-04-25T07:05:32;160.83;;;8.10;;
5630;SDS011;2837;50.990;7.124;2023-04-25T07:07:58;155.17;;;7.27;;
5630;SDS011;2837;50.990;7.124;2023-04-25T07:10:23;154.30;;;7.07;;
5630;SDS011;2837;50.990;7.124;2023-04-25T07:12:50;155.17;;;7.70;;
5630;SDS011;2837;50.990;7.124;2023-04-25T07:15:15;157.17;;;8.40;;
5630;SDS011;2837;50.990;7.124;2023-04-25T07:17:41;159.27;;;7.70;;
5630;SDS011;2837;50.990;7.124;2023-04-25T07:20:07;158.47;;;8.00;;
5630;SDS011;2837;50.990;7.124;2023-04-25T07:22:34;156.77;;;7.70;;
5630;SDS011;2837;50.990;7.124;2023-04-25T07:25:00;157.63;;;7.83;;
5630;SDS011;2837;50.990;7.124;2023-04-25T07:27:25;157.20;;;8.13;;
5630;SDS011;2837;50.990;7.124;2023-04-25T07:29:51;161.87;;;8.87;;
5630;SDS011;2837;50.990;7.124;2023-04-25T07:32:16;161.67;;;7.87;;
5630;SDS011;2837;50.990;7.124;2023-04-25T07:34:42;157.90;;;8.50;;
5630;SDS011;2837;50.990;7.124;2023-04-25T07:37:08;156.17;;;7.83;;
5630;SDS011;2837;50.990;7.124;2023-04-25T07:39:33;156.37;;;8.50;;
5630;SDS011;2837;50.990;7.124;2023-04-25T07:42:00;156.27;;;7.70;;
5630;SDS011;2837;50.990;7.124;2023-04-25T07:44:27;157.00;;;8.57;;
5630;SDS011;2837;50.990;7.124;2023-04-25T07:46:52;156.50;;;7.80;;
5630;SDS011;2837;50.990;7.124;2023-04-25T07:49:18;159.83;;;8.27;;
5630;SDS011;2837;50.990;7.124;2023-04-25T07:51:44;154.73;;;7.83;;
5630;SDS011;2837;50.990;7.124;2023-04-25T07:54:12;155.17;;;7.83;;
5630;SDS011;2837;50.990;7.124;2023-04-25T07:56:38;163.30;;;7.97;;
5630;SDS011;2837;50.990;7.124;2023-04-25T07:59:04;155.00;;;8.20;;
5630;SDS011;2837;50.990;7.124;2023-04-25T08:01:30;154.50;;;8.20;;
5630;SDS011;2837;50.990;7.124;2023-04-25T08:03:55;153.13;;;7.83;;
5630;SDS011;2837;50.990;7.124;2023-04-25T08:06:21;153.97;;;7.70;;
5630;SDS011;2837;50.990;7.124;2023-04-25T08:08:46;156.07;;;7.70;;
5630;SDS011;2837;50.990;7.124;2023-04-25T08:11:12;157.57;;;8.40;;
5630;SDS011;2837;50.990;7.124;2023-04-25T08:13:37;154.70;;;7.30;;
5630;SDS011;2837;50.990;7.124;2023-04-25T08:16:03;153.70;;;7.33;;
5630;SDS011;2837;50.990;7.124;2023-04-25T08:18:29;154.90;;;7.50;;
5630;SDS011;2837;50.990;7.124;2023-04-25T08:20:55;154.87;;;7.27;;
5630;SDS011;2837;50.990;7.124;2023-04-25T08:23:21;154.10;;;7.07;;
5630;SDS011;2837;50.990;7.124;2023-04-25T08:25:46;158.70;;;8.47;;
5630;SDS011;2837;50.990;7.124;2023-04-25T08:28:12;153.73;;;7.40;;
5630;SDS011;2837;50.990;7.124;2023-04-25T08:30:37;156.40;;;8.57;;
5630;SDS011;2837;50.990;7.124;2023-04-25T08:33:03;153.63;;;7.30;;
5630;SDS011;2837;50.990;7.124;2023-04-25T08:35:29;157.50;;;8.07;;
5630;SDS011;2837;50.990;7.124;2023-04-25T08:37:54;156.27;;;7.50;;
5630;SDS011;2837;50.990;7.124;2023-04-25T08:40:20;154.67;;;7.80;;
5630;SDS011;2837;50.990;7.124;2023-04-25T08:42:51;155.67;;;7.70;;
5630;SDS011;2837;50.990;7.124;2023-04-25T08:45:18;153.13;;;7.03;;
5630;SDS011;2837;50.990;7.124;2023-04-25T08:47:44;157.70;;;7.33;;
5630;SDS011;2837;50.990;7.124;2023-04-25T08:50:10;154.47;;;7.50;;
5630;SDS011;2837;50.990;7.124;2023-04-25T08:52:37;152.37;;;7.60;;
5630;SDS011;2837;50.990;7.124;2023-04-25T08:55:09;153.73;;;7.27;;
5630;SDS011;2837;50.990;7.124;2023-04-25T08:57:36;154.53;;;7.93;;
5630;SDS011;2837;50.990;7.124;2023-04-25T09:00:02;151.97;;;6.90;;
5630;SDS011;2837;50.990;7.124;2023-04-25T09:02:29;154.67;;;7.43;;
5630;SDS011;2837;50.990;7.124;2023-04-25T09:04:55;153.97;;;7.97;;
5630;SDS011;2837;50.990;7.124;2023-04-25T09:07:21;153.27;;;7.40;;
5630;SDS011;2837;50.990;7.124;2023-04-25T09:09:47;156.47;;;7.50;;
5630;SDS011;2837;50.990;7.124;2023-04-25T09:12:12;154.93;;;7.50;;
5630;SDS011;2837;50.990;7.124;2023-04-25T09:14:38;158.30;;;7.40;;
5630;SDS011;2837;50.990;7.124;2023-04-25T09:17:04;152.67;;;7.20;;
5630;SDS011;2837;50.990;7.124;2023-04-25T09:19:33;155.37;;;7.70;;
5630;SDS011;2837;50.990;7.124;2023-04-25T09:22:00;158.73;;;7.60;;
5630;SDS011;2837;50.990;7.124;2023-04-25T09:27:04;156.57;;;7.97;;
5630;SDS011;2837;50.990;7.124;2023-04-25T09:29:32;154.37;;;8.10;;
5630;SDS011;2837;50.990;7.124;2023-04-25T09:34:54;154.97;;;7.70;;
5630;SDS011;2837;50.990;7.124;2023-04-25T09:37:21;154.30;;;8.70;;
5630;SDS011;2837;50.990;7.124;2023-04-25T09:39:48;153.97;;;8.43;;
5630;SDS011;2837;50.990;7.124;2023-04-25T09:42:25;154.80;;;7.63;;
5630;SDS011;2837;50.990;7.124;2023-04-25T09:44:53;152.47;;;7.27;;
5630;SDS011;2837;50.990;7.124;2023-04-25T09:47:20;152.57;;;6.93;;
5630;SDS011;2837;50.990;7.124;2023-04-25T09:49:48;156.30;;;7.30;;
5630;SDS011;2837;50.990;7.124;2023-04-25T09:52:16;158.07;;;7.60;;
5630;SDS011;2837;50.990;7.124;2023-04-25T09:54:45;154.87;;;7.57;;
5630;SDS011;2837;50.990;7.124;2023-04-25T09:57:15;155.13;;;8.20;;
5630;SDS011;2837;50.990;7.124;2023-04-25T10:00:03;152.90;;;7.33;;
5630;SDS011;2837;50.990;7.124;2023-04-25T10:02:29;154.97;;;7.53;;
5630;SDS011;2837;50.990;7.124;2023-04-25T10:04:56;154.70;;;8.00;;
5630;SDS011;2837;50.990;7.124;2023-04-25T10:07:25;155.03;;;7.30;;
5630;SDS011;2837;50.990;7.124;2023-04-25T10:09:54;156.33;;;8.07;;
5630;SDS011;2837;50.990;7.124;2023-04-25T10:12:27;156.30;;;7.90;;
5630;SDS011;2837;50.990;7.124;2023-04-25T10:14:54;152.93;;;7.10;;
5630;SDS011;2837;50.990;7.124;2023-04-25T10:17:20;154.90;;;8.03;;
5630;SDS011;2837;50.990;7.124;2023-04-25T10:19:46;153.67;;;7.53;;
5630;SDS011;2837;50.990;7.124;2023-04-25T10:22:20;152.03;;;7.50;;
5630;SDS011;2837;50.990;7.124;2023-04-25T10:24:54;152.30;;;8.03;;
5630;SDS011;2837;50.990;7.124;2023-04-25T10:27:21;154.70;;;7.30;;
5630;SDS011;2837;50.990;7.124;2023-04-25T10:29:59;154.67;;;7.67;;
5630;SDS011;2837;50.990;7.124;2023-04-25T10:32:27;152.50;;;6.53;;
5630;SDS011;2837;50.990;7.124;2023-04-25T10:34:53;153.70;;;7.40;;
5630;SDS011;2837;50.990;7.124;2023-04-25T10:37:19;153.47;;;7.67;;
5630;SDS011;2837;50.990;7.124;2023-04-25T10:39:45;154.37;;;7.50;;
5630;SDS011;2837;50.990;7.124;2023-04-25T10:42:11;152.87;;;7.20;;
5630;SDS011;2837;50.990;7.124;2023-04-25T10:44:37;155.40;;;7.30;;
5630;SDS011;2837;50.990;7.124;2023-04-25T10:47:07;155.87;;;7.20;;
5630;SDS011;2837;50.990;7.124;2023-04-25T10:49:35;151.03;;;7.00;;
5630;SDS011;2837;50.990;7.124;2023-04-25T10:52:18;151.00;;;6.80;;
5630;SDS011;2837;50.990;7.124;2023-04-25T10:54:54;154.10;;;8.10;;
5630;SDS011;2837;50.990;7.124;2023-04-25T10:57:31;151.27;;;7.20;;
5630;SDS011;2837;50.990;7.124;2023-04-25T11:00:10;155.17;;;7.50;;
5630;SDS011;2837;50.990;7.124;2023-04-25T11:02:42;155.57;;;8.23;;
5630;SDS011;2837;50.990;7.124;2023-04-25T11:05:31;152.37;;;7.40;;
5630;SDS011;2837;50.990;7.124;2023-04-25T11:07:58;151.63;;;7.30;;
5630;SDS011;2837;50.990;7.124;2023-04-25T11:10:32;154.87;;;7.00;;
5630;SDS011;2837;50.990;7.124;2023-04-25T11:13:01;151.27;;;6.80;;
5630;SDS011;2837;50.990;7.124;2023-04-25T11:15:27;153.87;;;7.20;;
5630;SDS011;2837;50.990;7.124;2023-04-25T11:17:54;154.10;;;6.87;;
5630;SDS011;2837;50.990;7.124;2023-04-25T11:20:20;153.33;;;7.20;;
5630;SDS011;2837;50.990;7.124;2023-04-25T11:22:47;154.17;;;7.37;;
5630;SDS011;2837;50.990;7.124;2023-04-25T11:25:14;152.83;;;7.20;;
5630;SDS011;2837;50.990;7.124;2023-04-25T11:27:54;153.20;;;7.87;;
5630;SDS011;2837;50.990;7.124;2023-04-25T11:30:22;153.03;;;7.17;;
5630;SDS011;2837;50.990;7.124;2023-04-25T11:32:49;153.10;;;7.13;;
5630;SDS011;2837;50.990;7.124;2023-04-25T11:35:15;151.40;;;7.10;;
5630;SDS011;2837;50.990;7.124;2023-04-25T11:37:41;153.07;;;6.83;;
5630;SDS011;2837;50.990;7.124;2023-04-25T11:40:08;152.10;;;7.20;;
5630;SDS011;2837;50.990;7.124;2023-04-25T11:42:36;151.30;;;6.53;;
5630;SDS011;2837;50.990;7.124;2023-04-25T11:45:08;154.20;;;7.60;;
5630;SDS011;2837;50.990;7.124;2023-04-25T11:47:34;153.70;;;8.13;;
5630;SDS011;2837;50.990;7.124;2023-04-25T11:50:01;151.67;;;7.30;;
5630;SDS011;2837;50.990;7.124;2023-04-25T11:52:39;152.30;;;7.20;;
5630;SDS011;2837;50.990;7.124;2023-04-25T11:55:06;154.50;;;7.20;;
5630;SDS011;2837;50.990;7.124;2023-04-25T11:57:39;153.40;;;7.27;;
5630;SDS011;2837;50.990;7.124;2023-04-25T12:00:15;151.20;;;6.47;;
5630;SDS011;2837;50.990;7.124;2023-04-25T12:02:43;150.70;;;6.97;;
5630;SDS011;2837;50.990;7.124;2023-04-25T12:05:11;153.60;;;6.50;;
5630;SDS011;2837;50.990;7.124;2023-04-25T12:07:39;154.20;;;7.20;;
5630;SDS011;2837;50.990;7.124;2023-04-25T12:10:09;151.67;;;6.90;;
5630;SDS011;2837;50.990;7.124;2023-04-25T12:12:37;153.17;;;6.80;;
5630;SDS011;2837;50.990;7.124;2023-04-25T12:15:08;151.50;;;7.60;;
5630;SDS011;2837;50.990;7.124;2023-04-25T12:17:44;154.30;;;6.90;;
5630;SDS011;2837;50.990;7.124;2023-04-25T12:20:15;151.40;;;6.90;;
5630;SDS011;2837;50.990;7.124;2023-04-25T12:22:42;149.77;;;6.37;;
5630;SDS011;2837;50.990;7.124;2023-04-25T12:25:12;152.97;;;6.80;;
5630;SDS011;2837;50.990;7.124;2023-04-25T12:27:39;151.57;;;7.30;;
5630;SDS011;2837;50.990;7.124;2023-04-25T12:30:09;151.27;;;6.57;;
5630;SDS011;2837;50.990;7.124;2023-04-25T12:32:36;152.07;;;6.90;;
5630;SDS011;2837;50.990;7.124;2023-04-25T12:35:02;151.80;;;6.80;;
5630;SDS011;2837;50.990;7.124;2023-04-25T12:37:29;149.67;;;6.77;;
5630;SDS011;2837;50.990;7.124;2023-04-25T12:39:55;151.70;;;7.60;;
5630;SDS011;2837;50.990;7.124;2023-04-25T12:42:21;150.03;;;6.97;;
5630;SDS011;2837;50.990;7.124;2023-04-25T12:44:46;150.87;;;7.43;;
5630;SDS011;2837;50.990;7.124;2023-04-25T12:47:12;150.77;;;7.10;;
5630;SDS011;2837;50.990;7.124;2023-04-25T12:49:38;153.60;;;7.60;;
5630;SDS011;2837;50.990;7.124;2023-04-25T12:52:04;150.97;;;7.60;;
5630;SDS011;2837;50.990;7.124;2023-04-25T12:54:29;150.10;;;6.97;;
5630;SDS011;2837;50.990;7.124;2023-04-25T12:56:56;150.57;;;7.33;;
5630;SDS011;2837;50.990;7.124;2023-04-25T12:59:22;151.93;;;7.77;;
5630;SDS011;2837;50.990;7.124;2023-04-25T13:01:48;149.07;;;6.80;;
5630;SDS011;2837;50.990;7.124;2023-04-25T13:04:14;150.10;;;7.10;;
5630;SDS011;2837;50.990;7.124;2023-04-25T13:06:40;149.67;;;7.33;;
5630;SDS011;2837;50.990;7.124;2023-04-25T13:09:06;149.27;;;7.27;;
5630;SDS011;2837;50.990;7.124;2023-04-25T13:11:31;152.07;;;7.67;;
5630;SDS011;2837;50.990;7.124;2023-04-25T13:13:57;150.73;;;7.50;;
5630;SDS011;2837;50.990;7.124;2023-04-25T13:16:22;151.57;;;7.53;;
5630;SDS011;2837;50.990;7.124;2023-04-25T13:18:48;153.70;;;7.37;;
5630;SDS011;2837;50.990;7.124;2023-04-25T13:21:14;151.60;;;7.23;;
5630;SDS011;2837;50.990;7.124;2023-04-25T13:23:39;150.03;;;7.70;;
5630;SDS011;2837;50.990;7.124;2023-04-25T13:26:07;150.17;;;7.10;;
5630;SDS011;2837;50.990;7.124;2023-04-25T13:28:33;150.70;;;7.50;;
5630;SDS011;2837;50.990;7.124;2023-04-25T13:30:58;152.10;;;7.50;;
5630;SDS011;2837;50.990;7.124;2023-04-25T13:33:24;149.37;;;7.20;;
5630;SDS011;2837;50.990;7.124;2023-04-25T13:35:50;150.73;;;7.60;;
5630;SDS011;2837;50.990;7.124;2023-04-25T13:38:22;152.43;;;7.80;;
5630;SDS011;2837;50.990;7.124;2023-04-25T13:40:49;150.27;;;7.40;;
5630;SDS011;2837;50.990;7.124;2023-04-25T13:43:17;149.23;;;7.20;;
5630;SDS011;2837;50.990;7.124;2023-04-25T13:45:49;150.27;;;7.17;;
5630;SDS011;2837;50.990;7.124;2023-04-25T13:48:15;149.47;;;6.63;;
5630;SDS011;2837;50.990;7.124;2023-04-25T13:50:41;150.50;;;7.43;;
5630;SDS011;2837;50.990;7.124;2023-04-25T13:53:06;150.07;;;7.10;;
5630;SDS011;2837;50.990;7.124;2023-04-25T13:55:33;154.57;;;7.83;;
5630;SDS011;2837;50.990;7.124;2023-04-25T13:58:00;151.47;;;7.23;;
5630;SDS011;2837;50.990;7.124;2023-04-25T14:00:32;151.67;;;7.13;;
5630;SDS011;2837;50.990;7.124;2023-04-25T14:02:57;152.50;;;7.17;;
5630;SDS011;2837;50.990;7.124;2023-04-25T14:05:23;151.67;;;8.10;;
5630;SDS011;2837;50.990;7.124;2023-04-25T14:07:49;151.97;;;7.63;;
5630;SDS011;2837;50.990;7.124;2023-04-25T14:10:15;151.87;;;7.20;;
5630;SDS011;2837;50.990;7.124;2023-04-25T14:12:40;153.03;;;7.20;;
5630;SDS011;2837;50.990;7.124;2023-04-25T14:15:06;155.13;;;7.30;;
5630;SDS011;2837;50.990;7.124;2023-04-25T14:17:32;152.70;;;7.50;;
5630;SDS011;2837;50.990;7.124;2023-04-25T14:19:57;153.97;;;7.63;;
5630;SDS011;2837;50.990;7.124;2023-04-25T14:22:23;150.17;;;7.03;;
5630;SDS011;2837;50.990;7.124;2023-04-25T14:24:48;153.20;;;7.10;;
5630;SDS011;2837;50.990;7.124;2023-04-25T14:27:14;150.63;;;7.30;;
5630;SDS011;2837;50.990;7.124;2023-04-25T14:29:39;151.77;;;7.00;;
5630;SDS011;2837;50.990;7.124;2023-04-25T14:32:05;151.83;;;7.03;;
5630;SDS011;2837;50.990;7.124;2023-04-25T14:34:31;153.50;;;7.00;;
5630;SDS011;2837;50.990;7.124;2023-04-25T14:36:56;150.87;;;7.20;;
5630;SDS011;2837;50.990;7.124;2023-04-25T14:39:22;151.10;;;7.00;;
5630;SDS011;2837;50.990;7.124;2023-04-25T14:41:48;150.60;;;7.10;;
5630;SDS011;2837;50.990;7.124;2023-04-25T14:44:13;153.10;;;7.40;;
5630;SDS011;2837;50.990;7.124;2023-04-25T14:46:39;150.43;;;7.27;;
5630;SDS011;2837;50.990;7.124;2023-04-25T14:49:04;151.13;;;7.27;;
5630;SDS011;2837;50.990;7.124;2023-04-25T14:51:30;150.30;;;7.80;;
5630;SDS011;2837;50.990;7.124;2023-04-25T14:53:56;152.13;;;7.87;;
5630;SDS011;2837;50.990;7.124;2023-04-25T14:56:21;151.40;;;7.47;;
5630;SDS011;2837;50.990;7.124;2023-04-25T14:58:47;150.13;;;7.57;;
5630;SDS011;2837;50.990;7.124;2023-04-25T15:01:13;151.67;;;7.53;;
5630;SDS011;2837;50.990;7.124;2023-04-25T15:03:42;151.30;;;7.40;;
5630;SDS011;2837;50.990;7.124;2023-04-25T15:06:08;153.27;;;7.77;;
5630;SDS011;2837;50.990;7.124;2023-04-25T15:08:33;150.87;;;7.20;;
5630;SDS011;2837;50.990;7.124;2023-04-25T15:10:59;152.50;;;7.60;;
5630;SDS011;2837;50.990;7.124;2023-04-25T15:13:27;151.97;;;7.17;;
5630;SDS011;2837;50.990;7.124;2023-04-25T15:15:52;152.50;;;7.80;;
5630;SDS011;2837;50.990;7.124;2023-04-25T15:18:19;150.57;;;6.57;;
5630;SDS011;2837;50.990;7.124;2023-04-25T15:20:49;150.93;;;7.10;;
5630;SDS011;2837;50.990;7.124;2023-04-25T15:23:16;151.60;;;7.50;;
5630;SDS011;2837;50.990;7.124;2023-04-25T15:25:42;154.27;;;7.40;;
5630;SDS011;2837;50.990;7.124;2023-04-25T15:28:08;152.20;;;7.00;;
5630;SDS011;2837;50.990;7.124;2023-04-25T15:30:33;152.90;;;7.13;;
5630;SDS011;2837;50.990;7.124;2023-04-25T15:32:59;152.03;;;7.00;;
5630;SDS011;2837;50.990;7.124;2023-04-25T15:35:25;153.30;;;7.00;;
5630;SDS011;2837;50.990;7.124;2023-04-25T15:37:51;150.90;;;7.17;;
5630;SDS011;2837;50.990;7.124;2023-04-25T15:40:16;152.47;;;7.10;;
5630;SDS011;2837;50.990;7.124;2023-04-25T15:42:43;150.83;;;6.90;;
5630;SDS011;2837;50.990;7.124;2023-04-25T15:45:15;152.90;;;7.47;;
5630;SDS011;2837;50.990;7.124;2023-04-25T15:47:41;150.70;;;7.07;;
5630;SDS011;2837;50.990;7.124;2023-04-25T15:50:08;151.57;;;7.40;;
5630;SDS011;2837;50.990;7.124;2023-04-25T15:52:35;151.03;;;7.10;;
5630;SDS011;2837;50.990;7.124;2023-04-25T15:55:01;151.17;;;6.47;;
5630;SDS011;2837;50.990;7.124;2023-04-25T15:57:28;150.80;;;7.20;;
5630;SDS011;2837;50.990;7.124;2023-04-25T15:59:55;153.27;;;7.50;;
5630;SDS011;2837;50.990;7.124;2023-04-25T16:02:20;150.40;;;7.10;;
5630;SDS011;2837;50.990;7.124;2023-04-25T16:04:46;153.87;;;7.00;;
5630;SDS011;2837;50.990;7.124;2023-04-25T16:07:12;151.73;;;6.93;;
5630;SDS011;2837;50.990;7.124;2023-04-25T16:09:38;149.83;;;6.80;;
5630;SDS011;2837;50.990;7.124;2023-04-25T16:12:04;149.93;;;6.80;;
5630;SDS011;2837;50.990;7.124;2023-04-25T16:14:31;151.83;;;7.47;;
5630;SDS011;2837;50.990;7.124;2023-04-25T16:16:57;151.83;;;7.43;;
5630;SDS011;2837;50.990;7.124;2023-04-25T16:19:23;152.67;;;7.30;;
5630;SDS011;2837;50.990;7.124;2023-04-25T16:21:48;151.90;;;7.10;;
5630;SDS011;2837;50.990;7.124;2023-04-25T16:24:14;150.00;;;6.83;;
5630;SDS011;2837;50.990;7.124;2023-04-25T16:26:39;150.23;;;7.27;;
5630;SDS011;2837;50.990;7.124;2023-04-25T16:29:06;151.27;;;7.00;;
5630;SDS011;2837;50.990;7.124;2023-04-25T16:31:35;150.23;;;7.50;;
5630;SDS011;2837;50.990;7.124;2023-04-25T16:34:02;151.00;;;7.00;;
5630;SDS011;2837;50.990;7.124;2023-04-25T16:36:28;151.57;;;7.93;;
5630;SDS011;2837;50.990;7.124;2023-04-25T16:38:53;153.10;;;7.10;;
5630;SDS011;2837;50.990;7.124;2023-04-25T16:41:19;150.17;;;7.17;;
5630;SDS011;2837;50.990;7.124;2023-04-25T16:43:45;150.00;;;7.40;;
5630;SDS011;2837;50.990;7.124;2023-04-25T16:46:10;149.67;;;7.07;;
5630;SDS011;2837;50.990;7.124;2023-04-25T16:48:36;149.80;;;7.20;;
5630;SDS011;2837;50.990;7.124;2023-04-25T16:51:01;150.23;;;7.10;;
5630;SDS011;2837;50.990;7.124;2023-04-25T16:53:27;153.97;;;7.10;;
5630;SDS011;2837;50.990;7.124;2023-04-25T16:55:52;151.10;;;7.40;;
5630;SDS011;2837;50.990;7.124;2023-04-25T16:58:18;150.97;;;7.30;;
5630;SDS011;2837;50.990;7.124;2023-04-25T17:00:44;151.97;;;7.30;;
5630;SDS011;2837;50.990;7.124;2023-04-25T17:03:10;151.57;;;8.07;;
5630;SDS011;2837;50.990;7.124;2023-04-25T17:05:36;151.37;;;7.30;;
5630;SDS011;2837;50.990;7.124;2023-04-25T17:08:02;150.23;;;6.63;;
5630;SDS011;2837;50.990;7.124;2023-04-25T17:10:28;151.17;;;7.23;;
5630;SDS011;2837;50.990;7.124;2023-04-25T17:12:54;151.30;;;7.70;;
5630;SDS011;2837;50.990;7.124;2023-04-25T17:15:20;151.77;;;6.90;;
5630;SDS011;2837;50.990;7.124;2023-04-25T17:17:45;153.20;;;7.53;;
5630;SDS011;2837;50.990;7.124;2023-04-25T17:20:11;151.17;;;7.27;;
5630;SDS011;2837;50.990;7.124;2023-04-25T17:22:40;154.80;;;6.93;;
5630;SDS011;2837;50.990;7.124;2023-04-25T17:25:06;151.67;;;7.20;;
5630;SDS011;2837;50.990;7.124;2023-04-25T17:27:33;154.23;;;7.20;;
5630;SDS011;2837;50.990;7.124;2023-04-25T17:30:00;157.77;;;7.43;;
5630;SDS011;2837;50.990;7.124;2023-04-25T17:32:27;150.80;;;7.33;;
5630;SDS011;2837;50.990;7.124;2023-04-25T17:34:53;150.53;;;6.93;;
5630;SDS011;2837;50.990;7.124;2023-04-25T17:37:19;151.17;;;7.30;;
5630;SDS011;2837;50.990;7.124;2023-04-25T17:39:45;150.77;;;7.13;;
5630;SDS011;2837;50.990;7.124;2023-04-25T17:42:10;151.77;;;8.33;;
5630;SDS011;2837;50.990;7.124;2023-04-25T17:44:40;150.43;;;7.00;;
5630;SDS011;2837;50.990;7.124;2023-04-25T17:47:06;154.27;;;7.40;;
5630;SDS011;2837;50.990;7.124;2023-04-25T17:49:33;150.77;;;6.87;;
5630;SDS011;2837;50.990;7.124;2023-04-25T17:51:59;153.13;;;8.03;;
5630;SDS011;2837;50.990;7.124;2023-04-25T17:54:25;150.80;;;6.60;;
5630;SDS011;2837;50.990;7.124;2023-04-25T17:56:52;152.77;;;6.73;;
5630;SDS011;2837;50.990;7.124;2023-04-25T17:59:18;152.57;;;7.60;;
5630;SDS011;2837;50.990;7.124;2023-04-25T18:01:44;151.87;;;6.97;;
5630;SDS011;2837;50.990;7.124;2023-04-25T18:04:10;150.80;;;6.70;;
5630;SDS011;2837;50.990;7.124;2023-04-25T18:06:36;152.33;;;7.83;;
5630;SDS011;2837;50.990;7.124;2023-04-25T18:09:01;153.47;;;6.90;;
5630;SDS011;2837;50.990;7.124;2023-04-25T18:11:27;152.27;;;7.67;;
5630;SDS011;2837;50.990;7.124;2023-04-25T18:13:53;152.97;;;7.07;;
5630;SDS011;2837;50.990;7.124;2023-04-25T18:16:19;153.50;;;7.30;;
5630;SDS011;2837;50.990;7.124;2023-04-25T18:18:46;151.87;;;7.50;;
5630;SDS011;2837;50.990;7.124;2023-04-25T18:21:17;151.97;;;6.80;;
5630;SDS011;2837;50.990;7.124;2023-04-25T18:23:45;151.87;;;7.53;;
5630;SDS011;2837;50.990;7.124;2023-04-25T18:26:11;151.53;;;7.30;;
5630;SDS011;2837;50.990;7.124;2023-04-25T18:28:37;152.10;;;7.50;;
5630;SDS011;2837;50.990;7.124;2023-04-25T18:31:03;151.30;;;6.80;;
5630;SDS011;2837;50.990;7.124;2023-04-25T18:33:30;152.30;;;6.90;;
5630;SDS011;2837;50.990;7.124;2023-04-25T18:35:55;154.47;;;7.50;;
5630;SDS011;2837;50.990;7.124;2023-04-25T18:38:22;151.77;;;6.83;;
5630;SDS011;2837;50.990;7.124;2023-04-25T18:40:48;151.70;;;7.00;;
5630;SDS011;2837;50.990;7.124;2023-04-25T18:43:14;154.00;;;7.10;;
5630;SDS011;2837;50.990;7.124;2023-04-25T18:45:39;152.33;;;6.90;;
5630;SDS011;2837;50.990;7.124;2023-04-25T18:48:05;153.07;;;7.37;;
5630;SDS011;2837;50.990;7.124;2023-04-25T18:50:31;151.50;;;6.90;;
5630;SDS011;2837;50.990;7.124;2023-04-25T18:52:57;157.63;;;7.90;;
5630;SDS011;2837;50.990;7.124;2023-04-25T18:55:23;153.40;;;7.57;;
5630;SDS011;2837;50.990;7.124;2023-04-25T18:57:50;152.77;;;7.60;;
5630;SDS011;2837;50.990;7.124;2023-04-25T19:00:15;153.70;;;7.20;;
5630;SDS011;2837;50.990;7.124;2023-04-25T19:02:41;151.10;;;7.30;;
5630;SDS011;2837;50.990;7.124;2023-04-25T19:05:07;153.83;;;7.73;;
5630;SDS011;2837;50.990;7.124;2023-04-25T19:07:34;154.27;;;7.30;;
5630;SDS011;2837;50.990;7.124;2023-04-25T19:09:59;154.07;;;7.00;;
5630;SDS011;2837;50.990;7.124;2023-04-25T19:12:25;153.37;;;7.73;;
5630;SDS011;2837;50.990;7.124;2023-04-25T19:14:51;152.73;;;6.70;;
5630;SDS011;2837;50.990;7.124;2023-04-25T19:17:17;155.10;;;6.70;;
5630;SDS011;2837;50.990;7.124;2023-04-25T19:19:42;153.47;;;7.57;;
5630;SDS011;2837;50.990;7.124;2023-04-25T19:22:08;152.03;;;6.90;;
5630;SDS011;2837;50.990;7.124;2023-04-25T19:24:34;153.10;;;7.53;;
5630;SDS011;2837;50.990;7.124;2023-04-25T19:26:59;151.40;;;6.80;;
5630;SDS011;2837;50.990;7.124;2023-04-25T19:29:25;151.37;;;6.83;;
5630;SDS011;2837;50.990;7.124;2023-04-25T19:31:52;153.10;;;7.20;;
5630;SDS011;2837;50.990;7.124;2023-04-25T19:34:18;152.90;;;6.60;;
5630;SDS011;2837;50.990;7.124;2023-04-25T19:36:43;153.03;;;7.47;;
5630;SDS011;2837;50.990;7.124;2023-04-25T19:39:09;153.73;;;7.30;;
5630;SDS011;2837;50.990;7.124;2023-04-25T19:41:35;152.93;;;7.20;;
5630;SDS011;2837;50.990;7.124;2023-04-25T19:44:02;152.87;;;7.30;;
5630;SDS011;2837;50.990;7.124;2023-04-25T19:46:33;152.83;;;7.03;;
5630;SDS011;2837;50.990;7.124;2023-04-25T19:48:59;151.50;;;6.70;;
5630;SDS011;2837;50.990;7.124;2023-04-25T19:51:25;151.87;;;6.50;;